createdAt,value
2022-08-30T00:01:03.020Z,3.70
2022-08-30T00:03:30.487Z,3.15
2022-08-30T00:05:56.934Z,3.47
2022-08-30T00:08:23.255Z,3.10
2022-08-30T00:10:51.180Z,3.35
2022-08-30T00:13:17.642Z,3.85
2022-08-30T00:15:44.077Z,2.80
2022-08-30T00:18:10.453Z,3.10
2022-08-30T00:20:36.743Z,3.60
2022-08-30T00:23:03.036Z,3.70
2022-08-30T00:25:29.344Z,3.80
2022-08-30T00:27:55.652Z,3.97
2022-08-30T00:30:21.963Z,3.25
2022-08-30T00:32:48.255Z,4.38
2022-08-30T00:35:14.563Z,3.33
2022-08-30T00:37:40.861Z,3.38
2022-08-30T00:40:07.222Z,3.33
2022-08-30T00:42:33.755Z,3.88
2022-08-30T00:45:00.121Z,3.60
2022-08-30T00:47:26.431Z,3.70
2022-08-30T00:49:54.164Z,3.58
2022-08-30T00:52:20.455Z,3.22
2022-08-30T00:54:46.819Z,3.40
2022-08-30T00:57:13.106Z,3.35
2022-08-30T00:59:39.437Z,3.25
2022-08-30T01:02:05.757Z,3.53
2022-08-30T01:04:32.314Z,3.78
2022-08-30T01:06:59.091Z,3.40
2022-08-30T01:09:25.440Z,4.03
2022-08-30T01:11:51.903Z,3.53
2022-08-30T01:14:18.203Z,3.33
2022-08-30T01:16:44.510Z,3.70
2022-08-30T01:19:10.803Z,3.08
2022-08-30T01:21:39.076Z,3.35
2022-08-30T01:24:05.376Z,3.38
2022-08-30T01:26:31.668Z,3.53
2022-08-30T01:28:57.985Z,3.80
2022-08-30T01:31:24.361Z,3.33
2022-08-30T01:33:51.057Z,3.65
2022-08-30T01:36:17.436Z,3.55
2022-08-30T01:38:43.755Z,3.47
2022-08-30T01:41:10.104Z,3.83
2022-08-30T01:43:36.750Z,3.65
2022-08-30T01:46:04.073Z,3.80
2022-08-30T01:48:31.143Z,3.30
2022-08-30T01:50:57.680Z,3.25
2022-08-30T01:53:23.981Z,3.50
2022-08-30T01:55:50.292Z,3.85
2022-08-30T01:58:16.590Z,3.85
2022-08-30T02:00:42.887Z,4.05
2022-08-30T02:03:09.184Z,2.80
2022-08-30T02:05:35.503Z,3.30
2022-08-30T02:08:01.811Z,3.58
2022-08-30T02:10:28.604Z,3.92
2022-08-30T02:12:54.917Z,3.75
2022-08-30T02:15:21.211Z,3.17
2022-08-30T02:17:47.567Z,3.63
2022-08-30T02:20:13.859Z,3.53
2022-08-30T02:22:40.225Z,3.33
2022-08-30T02:25:20.891Z,3.72
2022-08-30T02:27:47.680Z,3.90
2022-08-30T02:30:13.968Z,3.55
2022-08-30T02:32:41.428Z,3.50
2022-08-30T02:35:07.736Z,3.55
2022-08-30T02:37:34.032Z,3.78
2022-08-30T02:40:00.410Z,3.53
2022-08-30T02:42:26.750Z,3.45
2022-08-30T02:44:53.068Z,3.72
2022-08-30T02:47:19.386Z,3.72
2022-08-30T02:49:45.675Z,3.65
2022-08-30T02:52:11.968Z,3.60
2022-08-30T02:54:38.269Z,3.40
2022-08-30T02:57:06.275Z,3.50
2022-08-30T03:01:58.851Z,3.03
2022-08-30T03:04:26.870Z,3.28
2022-08-30T03:06:53.407Z,3.70
2022-08-30T03:09:19.725Z,3.90
2022-08-30T03:11:46.031Z,3.67
2022-08-30T03:14:12.361Z,2.97
2022-08-30T03:16:39.536Z,3.63
2022-08-30T03:19:05.974Z,3.75
2022-08-30T03:21:32.282Z,3.30
2022-08-30T03:23:58.585Z,3.58
2022-08-30T03:26:24.887Z,3.75
2022-08-30T03:28:51.186Z,3.75
2022-08-30T03:31:17.523Z,3.63
2022-08-30T03:33:43.878Z,3.22
2022-08-30T03:36:10.192Z,3.38
2022-08-30T03:38:36.476Z,3.17
2022-08-30T03:41:02.776Z,3.83
2022-08-30T03:43:30.278Z,3.63
2022-08-30T03:45:56.999Z,3.40
2022-08-30T03:48:23.351Z,2.95
2022-08-30T03:50:49.695Z,3.22
2022-08-30T03:53:16.116Z,3.50
2022-08-30T03:55:42.567Z,3.58
2022-08-30T03:58:08.887Z,3.33
2022-08-30T04:00:35.262Z,4.00
2022-08-30T04:03:01.666Z,3.63
2022-08-30T04:05:27.961Z,3.75
2022-08-30T04:07:54.260Z,3.95
2022-08-30T04:10:23.383Z,3.42
2022-08-30T04:12:49.970Z,3.50
2022-08-30T04:15:16.364Z,3.63
2022-08-30T04:17:42.651Z,3.58
2022-08-30T04:20:08.975Z,3.60
2022-08-30T04:22:36.798Z,3.88
2022-08-30T04:25:03.141Z,3.17
2022-08-30T04:27:29.445Z,3.53
2022-08-30T04:29:56.264Z,3.42
2022-08-30T04:32:22.712Z,4.20
2022-08-30T04:34:52.238Z,3.97
2022-08-30T04:37:18.548Z,4.40
2022-08-30T04:42:13.146Z,3.20
2022-08-30T04:44:39.455Z,3.85
2022-08-30T04:47:05.768Z,3.50
2022-08-30T04:49:35.069Z,3.47
2022-08-30T04:52:01.376Z,3.60
2022-08-30T04:54:27.679Z,4.05
2022-08-30T04:56:53.969Z,3.72
2022-08-30T04:59:20.295Z,3.40
2022-08-30T05:01:46.723Z,3.70
2022-08-30T05:04:13.155Z,3.25
2022-08-30T05:06:39.460Z,4.25
2022-08-30T05:09:05.789Z,3.17
2022-08-30T05:11:32.178Z,3.50
2022-08-30T05:13:58.475Z,3.35
2022-08-30T05:16:24.807Z,3.55
2022-08-30T05:18:51.729Z,3.35
2022-08-30T05:21:18.034Z,3.80
2022-08-30T05:23:44.338Z,3.10
2022-08-30T05:26:10.672Z,3.38
2022-08-30T05:28:36.964Z,3.80
2022-08-30T05:31:03.417Z,4.00
2022-08-30T05:33:29.933Z,4.53
2022-08-30T05:35:56.230Z,3.72
2022-08-30T05:38:22.528Z,3.63
2022-08-30T05:40:50.082Z,4.40
2022-08-30T05:43:16.381Z,4.07
2022-08-30T05:45:42.686Z,4.15
2022-08-30T05:48:09.002Z,3.85
2022-08-30T05:50:40.107Z,4.47
2022-08-30T05:53:06.473Z,4.10
2022-08-30T05:55:32.933Z,4.18
2022-08-30T05:58:00.785Z,4.15
2022-08-30T06:00:27.117Z,4.00
2022-08-30T06:02:53.922Z,4.10
2022-08-30T06:05:20.628Z,4.03
2022-08-30T06:07:47.151Z,4.25
2022-08-30T06:10:13.922Z,3.92
2022-08-30T06:12:43.130Z,3.63
2022-08-30T06:15:09.444Z,4.30
2022-08-30T06:17:35.748Z,4.03
2022-08-30T06:20:02.041Z,4.35
2022-08-30T06:22:28.352Z,4.38
2022-08-30T06:24:57.445Z,4.38
2022-08-30T06:27:24.230Z,4.45
2022-08-30T06:29:50.524Z,3.60
2022-08-30T06:32:16.914Z,3.50
2022-08-30T06:34:43.209Z,3.95
2022-08-30T06:37:09.499Z,3.80
2022-08-30T06:39:35.798Z,3.75
2022-08-30T06:42:02.093Z,4.07
2022-08-30T06:44:28.415Z,4.35
2022-08-30T06:49:22.861Z,4.30
2022-08-30T06:51:49.152Z,4.28
2022-08-30T06:54:15.440Z,3.75
2022-08-30T06:56:48.741Z,4.03
2022-08-30T06:59:24.283Z,3.95
2022-08-30T07:01:50.646Z,4.25
2022-08-30T07:04:17.016Z,3.83
2022-08-30T07:06:43.325Z,4.10
2022-08-30T07:09:09.643Z,3.92
2022-08-30T07:11:36.284Z,4.00
2022-08-30T07:14:02.608Z,3.92
2022-08-30T07:16:28.920Z,4.03
2022-08-30T07:18:55.338Z,3.90
2022-08-30T07:21:21.729Z,3.92
2022-08-30T07:23:53.422Z,3.92
2022-08-30T07:26:20.243Z,3.95
2022-08-30T07:28:46.600Z,3.40
2022-08-30T07:31:13.418Z,3.75
2022-08-30T07:33:40.500Z,3.40
2022-08-30T07:36:07.139Z,4.43
2022-08-30T07:38:33.447Z,3.78
2022-08-30T07:41:01.144Z,3.80
2022-08-30T07:43:27.585Z,3.47
2022-08-30T07:45:53.909Z,3.30
2022-08-30T07:48:20.219Z,3.85
2022-08-30T07:50:46.509Z,3.78
2022-08-30T07:53:12.963Z,3.50
2022-08-30T07:55:39.376Z,3.60
2022-08-30T07:58:05.678Z,3.55
2022-08-30T08:00:31.979Z,3.58
2022-08-30T08:02:58.336Z,3.20
2022-08-30T08:05:25.027Z,3.08
2022-08-30T08:07:51.390Z,3.33
2022-08-30T08:10:18.789Z,3.75
2022-08-30T08:12:45.103Z,3.75
2022-08-30T08:15:11.644Z,3.42
2022-08-30T08:17:37.939Z,3.92
2022-08-30T08:20:04.227Z,3.38
2022-08-30T08:22:30.662Z,3.15
2022-08-30T08:24:57.216Z,4.18
2022-08-30T08:27:24.732Z,3.40
2022-08-30T08:29:51.045Z,3.58
2022-08-30T08:32:17.345Z,3.53
2022-08-30T08:34:43.643Z,2.92
2022-08-30T08:37:09.942Z,3.30
2022-08-30T08:39:37.001Z,3.65
2022-08-30T08:42:04.016Z,3.53
2022-08-30T08:44:34.316Z,3.60
2022-08-30T08:47:01.005Z,3.30
2022-08-30T08:49:29.485Z,3.33
2022-08-30T08:52:14.506Z,3.22
2022-08-30T08:54:40.809Z,3.30
2022-08-30T08:57:07.109Z,3.75
2022-08-30T08:59:33.399Z,3.13
2022-08-30T09:02:00.802Z,3.20
2022-08-30T09:04:27.467Z,3.40
2022-08-30T09:06:53.810Z,3.50
2022-08-30T09:09:20.156Z,3.38
2022-08-30T09:11:46.984Z,3.50
2022-08-30T09:17:02.944Z,3.50
2022-08-30T09:19:30.627Z,3.03
2022-08-30T09:22:00.779Z,3.53
2022-08-30T09:24:27.063Z,3.38
2022-08-30T09:26:53.348Z,3.28
2022-08-30T09:29:19.635Z,3.65
2022-08-30T09:31:46.451Z,3.67
2022-08-30T09:34:12.765Z,3.22
2022-08-30T09:36:39.073Z,3.17
2022-08-30T09:39:05.373Z,2.58
2022-08-30T09:41:31.930Z,2.65
2022-08-30T09:43:58.239Z,3.20
2022-08-30T09:46:24.622Z,3.63
2022-08-30T09:48:50.957Z,3.00
2022-08-30T09:51:17.252Z,3.72
2022-08-30T09:53:55.707Z,3.30
2022-08-30T09:56:29.857Z,3.05
2022-08-30T09:58:56.356Z,3.20
2022-08-30T10:01:22.911Z,3.42
2022-08-30T10:03:49.394Z,3.00
2022-08-30T10:06:16.423Z,2.95
2022-08-30T10:08:42.756Z,3.70
2022-08-30T10:11:10.682Z,3.30
2022-08-30T10:13:36.933Z,3.10
2022-08-30T10:16:03.267Z,2.58
2022-08-30T10:18:29.594Z,2.70
2022-08-30T10:20:55.898Z,2.65
2022-08-30T10:23:22.211Z,2.42
2022-08-30T10:25:49.952Z,2.50
2022-08-30T10:30:42.523Z,2.28
2022-08-30T10:33:09.076Z,2.95
2022-08-30T10:35:39.179Z,2.50
2022-08-30T10:38:05.520Z,2.38
2022-08-30T10:40:50.627Z,2.33
2022-08-30T10:43:17.577Z,2.30
2022-08-30T10:45:44.477Z,2.40
2022-08-30T10:48:10.785Z,2.80
2022-08-30T10:53:24.743Z,2.10
2022-08-30T10:55:51.089Z,2.25
2022-08-30T10:58:18.192Z,2.55
2022-08-30T11:00:44.649Z,2.00
2022-08-30T11:03:10.975Z,2.58
2022-08-30T11:05:37.356Z,2.05
2022-08-30T11:08:08.256Z,2.22
2022-08-30T11:10:47.767Z,2.00
2022-08-30T11:13:16.477Z,2.05
2022-08-30T11:15:42.895Z,2.95
2022-08-30T11:18:09.188Z,2.17
2022-08-30T11:20:36.021Z,2.03
2022-08-30T11:23:02.379Z,1.90
2022-08-30T11:25:28.867Z,2.20
2022-08-30T11:27:58.733Z,2.03
2022-08-30T11:30:26.595Z,2.05
2022-08-30T11:32:53.541Z,2.00
2022-08-30T11:35:20.580Z,1.90
2022-08-30T11:37:48.824Z,2.03
2022-08-30T11:40:17.486Z,2.38
2022-08-30T11:42:48.288Z,2.15
2022-08-30T11:45:15.807Z,2.30
2022-08-30T11:47:43.329Z,2.78
2022-08-30T11:50:12.374Z,2.03
2022-08-30T11:52:39.209Z,2.08
2022-08-30T11:55:06.065Z,2.10
2022-08-30T11:59:59.609Z,2.10
2022-08-30T12:02:25.953Z,2.55
2022-08-30T12:04:56.168Z,2.17
2022-08-30T12:07:22.905Z,1.95
2022-08-30T12:09:49.453Z,2.60
2022-08-30T12:12:15.788Z,3.15
2022-08-30T12:14:42.138Z,2.00
2022-08-30T12:17:27.196Z,2.05
2022-08-30T12:19:53.498Z,1.95
2022-08-30T12:22:19.977Z,2.10
2022-08-30T12:24:46.336Z,2.15
2022-08-30T12:27:12.690Z,2.03
2022-08-30T12:29:41.785Z,1.83
2022-08-30T12:32:08.622Z,2.47
2022-08-30T12:34:34.951Z,2.30
2022-08-30T12:37:02.915Z,2.38
2022-08-30T12:39:30.883Z,3.00
2022-08-30T12:41:57.229Z,2.65
2022-08-30T12:44:23.577Z,2.50
2022-08-30T12:46:49.903Z,2.95
2022-08-30T12:49:16.205Z,2.45
2022-08-30T12:51:42.495Z,2.75
2022-08-30T12:54:08.817Z,2.65
2022-08-30T12:56:50.097Z,2.17
2022-08-30T12:59:16.705Z,2.42
2022-08-30T13:01:44.811Z,2.58
2022-08-30T13:04:14.296Z,2.58
2022-08-30T13:06:42.215Z,3.47
2022-08-30T13:09:08.571Z,2.97
2022-08-30T13:11:34.948Z,2.75
2022-08-30T13:14:01.250Z,2.88
2022-08-30T13:16:29.390Z,2.67
2022-08-30T13:18:56.124Z,2.45
2022-08-30T13:21:22.461Z,2.55
2022-08-30T13:23:48.759Z,2.33
2022-08-30T13:26:15.252Z,2.47
2022-08-30T13:28:49.611Z,2.38
2022-08-30T13:31:16.080Z,2.10
2022-08-30T13:33:45.504Z,2.20
2022-08-30T13:36:11.858Z,2.38
2022-08-30T13:38:38.327Z,2.38
2022-08-30T13:41:04.631Z,2.58
2022-08-30T13:43:31.261Z,2.13
2022-08-30T13:46:17.515Z,2.38
2022-08-30T13:48:43.856Z,2.25
2022-08-30T13:51:10.335Z,2.13
2022-08-30T13:53:53.128Z,2.13
2022-08-30T13:56:19.921Z,1.80
2022-08-30T14:01:14.007Z,2.40
2022-08-30T14:04:13.188Z,2.20
2022-08-30T14:06:33.096Z,2.15
2022-08-30T14:09:03.743Z,2.03
2022-08-30T14:11:30.582Z,2.53
2022-08-30T14:16:43.262Z,3.00
2022-08-30T14:19:09.619Z,1.92
2022-08-30T14:21:35.927Z,2.95
2022-08-30T14:24:04.683Z,2.00
2022-08-30T14:26:32.740Z,1.90
2022-08-30T14:29:02.835Z,2.33
2022-08-30T14:31:30.092Z,2.40
2022-08-30T14:33:59.267Z,2.00
2022-08-30T14:36:25.590Z,1.80
2022-08-30T14:38:51.958Z,2.58
2022-08-30T14:41:18.279Z,2.08
2022-08-30T14:43:44.604Z,2.03
2022-08-30T14:46:11.024Z,1.83
2022-08-30T14:48:37.397Z,2.00
2022-08-30T14:51:04.468Z,1.80
2022-08-30T14:53:30.775Z,1.77
2022-08-30T14:55:57.063Z,2.67
2022-08-30T14:58:23.433Z,2.72
2022-08-30T15:00:49.744Z,2.05
2022-08-30T15:03:16.100Z,3.10
2022-08-30T15:05:42.668Z,2.85
2022-08-30T15:08:10.016Z,1.95
2022-08-30T15:10:36.993Z,3.03
2022-08-30T15:13:04.772Z,2.65
2022-08-30T15:15:31.236Z,2.75
2022-08-30T15:17:57.539Z,2.55
2022-08-30T15:20:23.849Z,2.15
2022-08-30T15:22:50.186Z,2.10
2022-08-30T15:25:18.669Z,2.47
2022-08-30T15:27:49.284Z,2.58
2022-08-30T15:30:15.604Z,2.15
2022-08-30T15:32:45.995Z,1.80
2022-08-30T15:35:12.302Z,1.80
2022-08-30T15:37:38.606Z,1.95
2022-08-30T15:40:04.985Z,2.10
2022-08-30T15:42:31.939Z,2.10
2022-08-30T15:44:59.324Z,2.67
2022-08-30T15:47:26.157Z,1.83
2022-08-30T15:49:52.475Z,1.80
2022-08-30T15:52:18.832Z,1.88
2022-08-30T15:54:49.419Z,1.83
2022-08-30T15:57:16.207Z,1.63
2022-08-30T15:59:43.514Z,2.05
2022-08-30T16:02:09.866Z,1.65
2022-08-30T16:04:37.125Z,1.73
2022-08-30T16:07:03.424Z,1.92
2022-08-30T16:09:32.433Z,1.65
2022-08-30T16:11:59.089Z,2.28
2022-08-30T16:14:25.804Z,2.10
2022-08-30T16:16:52.116Z,1.70
2022-08-30T16:19:18.432Z,1.80
2022-08-30T16:21:44.882Z,2.15
2022-08-30T16:24:13.856Z,1.80
2022-08-30T16:26:40.481Z,2.40
2022-08-30T16:29:07.598Z,2.10
2022-08-30T16:31:35.260Z,2.00
2022-08-30T16:34:02.347Z,2.20
2022-08-30T16:36:30.133Z,2.28
2022-08-30T16:38:58.403Z,2.03
2022-08-30T16:41:24.894Z,2.28
2022-08-30T16:43:53.598Z,2.00
2022-08-30T16:46:22.940Z,2.30
2022-08-30T16:48:53.408Z,1.95
2022-08-30T16:51:19.769Z,2.10
2022-08-30T16:53:46.390Z,1.98
2022-08-30T16:56:12.705Z,2.40
2022-08-30T16:58:39.081Z,2.00
2022-08-30T17:01:05.582Z,2.53
2022-08-30T17:03:31.933Z,1.77
2022-08-30T17:05:58.237Z,2.50
2022-08-30T17:08:24.823Z,2.42
2022-08-30T17:10:51.119Z,2.47
2022-08-30T17:13:17.904Z,1.70
2022-08-30T17:15:45.819Z,2.60
2022-08-30T17:20:40.494Z,2.10
2022-08-30T17:23:10.785Z,1.90
2022-08-30T17:25:37.111Z,2.03
2022-08-30T17:28:03.674Z,2.13
2022-08-30T17:32:57.644Z,2.15
2022-08-30T17:35:24.306Z,1.70
2022-08-30T17:37:51.393Z,1.77
2022-08-30T17:40:17.734Z,1.95
2022-08-30T17:42:45.039Z,2.20
2022-08-30T17:45:11.334Z,2.20
2022-08-30T17:47:37.654Z,1.98
2022-08-30T17:50:05.103Z,2.17
2022-08-30T17:52:32.044Z,1.95
2022-08-30T17:54:59.703Z,2.03
2022-08-30T17:57:26.070Z,1.92
2022-08-30T17:59:52.381Z,2.10
2022-08-30T18:04:57.775Z,1.70
2022-08-30T18:07:25.567Z,1.88
2022-08-30T18:12:20.176Z,2.00
2022-08-30T18:14:47.114Z,2.10
2022-08-30T18:17:19.354Z,1.98
2022-08-30T18:19:46.851Z,1.90
2022-08-30T18:22:13.157Z,1.90
2022-08-30T18:24:39.471Z,2.00
2022-08-30T18:27:05.936Z,2.50
2022-08-30T18:29:32.321Z,2.03
2022-08-30T18:31:58.629Z,2.28
2022-08-30T18:34:24.947Z,2.10
2022-08-30T18:36:51.320Z,2.78
2022-08-30T18:39:18.892Z,2.30
2022-08-30T18:41:46.902Z,2.10
2022-08-30T18:44:27.268Z,2.40
2022-08-30T18:46:56.056Z,2.42
2022-08-30T18:49:23.213Z,2.30
2022-08-30T18:51:49.960Z,2.20
2022-08-30T18:54:16.453Z,2.92
2022-08-30T18:56:42.765Z,2.15
2022-08-30T18:59:12.084Z,2.47
2022-08-30T19:01:38.781Z,2.30
2022-08-30T19:06:34.233Z,2.22
2022-08-30T19:09:00.555Z,1.90
2022-08-30T19:11:26.948Z,2.22
2022-08-30T19:13:53.770Z,2.40
2022-08-30T19:16:20.072Z,2.45
2022-08-30T19:18:46.735Z,3.40
2022-08-30T19:21:13.527Z,2.47
2022-08-30T19:23:40.085Z,2.13
2022-08-30T19:26:06.429Z,2.38
2022-08-30T19:28:34.602Z,2.45
2022-08-30T19:31:01.001Z,2.25
2022-08-30T19:33:27.328Z,2.30
2022-08-30T19:35:54.022Z,2.85
2022-08-30T19:38:20.328Z,3.72
2022-08-30T19:40:49.095Z,4.68
2022-08-30T19:43:18.981Z,3.75
2022-08-30T19:45:45.465Z,4.10
2022-08-30T19:48:12.233Z,3.30
2022-08-30T19:50:39.659Z,3.05
2022-08-30T19:53:08.958Z,3.03
2022-08-30T19:55:37.200Z,2.92
2022-08-30T19:58:04.387Z,2.88
2022-08-30T20:00:31.322Z,2.95
2022-08-30T20:02:57.963Z,2.75
2022-08-30T20:05:24.299Z,2.80
2022-08-30T20:07:51.126Z,2.75
2022-08-30T20:10:19.752Z,3.53
2022-08-30T20:12:48.323Z,3.28
2022-08-30T20:15:16.151Z,2.75
2022-08-30T20:18:02.603Z,2.97
2022-08-30T20:20:28.781Z,2.83
2022-08-30T20:22:55.110Z,2.88
2022-08-30T20:25:25.181Z,3.20
2022-08-30T20:27:51.480Z,3.10
2022-08-30T20:30:17.784Z,3.10
2022-08-30T20:32:46.548Z,2.67
2022-08-30T20:35:12.963Z,2.60
2022-08-30T20:37:40.305Z,2.88
2022-08-30T20:40:06.920Z,3.28
2022-08-30T20:42:33.274Z,3.08
2022-08-30T20:45:00.172Z,3.35
2022-08-30T20:47:26.478Z,3.10
2022-08-30T20:49:52.949Z,3.05
2022-08-30T20:52:19.250Z,3.00
2022-08-30T20:54:45.577Z,3.22
2022-08-30T20:57:11.907Z,3.40
2022-08-30T20:59:38.735Z,3.30
2022-08-30T21:02:05.962Z,2.95
2022-08-30T21:04:32.715Z,3.03
2022-08-30T21:06:59.045Z,2.50
2022-08-30T21:09:25.451Z,2.72
2022-08-30T21:11:51.798Z,2.67
2022-08-30T21:14:18.407Z,2.90
2022-08-30T21:16:45.013Z,3.00
2022-08-30T21:19:11.362Z,3.05
2022-08-30T21:21:37.683Z,2.80
2022-08-30T21:24:06.639Z,3.25
2022-08-30T21:26:33.250Z,2.90
2022-08-30T21:28:59.543Z,3.00
2022-08-30T21:31:25.890Z,3.40
2022-08-30T21:33:52.277Z,2.20
2022-08-30T21:36:37.502Z,2.22
2022-08-30T21:39:03.799Z,2.35
2022-08-30T21:41:31.427Z,2.50
2022-08-30T21:43:57.973Z,2.30
2022-08-30T21:46:24.903Z,2.70
2022-08-30T21:48:51.176Z,2.25
2022-08-30T21:51:17.477Z,2.63
2022-08-30T21:53:43.777Z,3.08
2022-08-30T21:56:12.983Z,2.53
2022-08-30T21:58:40.051Z,2.88
2022-08-30T22:01:07.537Z,2.40
2022-08-30T22:03:34.219Z,2.33
2022-08-30T22:06:00.529Z,2.38
2022-08-30T22:08:26.834Z,2.88
2022-08-30T22:10:53.324Z,2.70
2022-08-30T22:13:19.773Z,2.63
2022-08-30T22:15:46.131Z,2.70
2022-08-30T22:18:12.483Z,2.40
2022-08-30T22:20:41.151Z,2.45
2022-08-30T22:23:07.791Z,2.30
2022-08-30T22:25:34.099Z,2.90
2022-08-30T22:28:00.406Z,2.78
2022-08-30T22:30:27.791Z,3.08
2022-08-30T22:32:54.086Z,2.47
2022-08-30T22:35:20.856Z,2.70
2022-08-30T22:37:53.132Z,2.13
2022-08-30T22:40:20.032Z,2.60
2022-08-30T22:42:48.495Z,2.30
2022-08-30T22:45:14.904Z,2.55
2022-08-30T22:47:41.198Z,2.60
2022-08-30T22:50:07.500Z,2.53
2022-08-30T22:52:33.881Z,2.90
2022-08-30T22:55:00.189Z,2.47
2022-08-30T22:57:26.799Z,2.63
2022-08-30T22:59:53.160Z,2.47
2022-08-30T23:02:19.513Z,2.42
2022-08-30T23:04:45.885Z,2.72
2022-08-30T23:07:12.189Z,2.90
2022-08-30T23:09:38.486Z,2.58
2022-08-30T23:12:06.250Z,3.33
2022-08-30T23:14:32.557Z,1.92
2022-08-30T23:16:58.901Z,2.25
2022-08-30T23:19:26.630Z,2.40
2022-08-30T23:21:52.927Z,2.15
2022-08-30T23:24:37.668Z,2.30
2022-08-30T23:27:25.969Z,2.58
2022-08-30T23:30:10.835Z,2.20
2022-08-30T23:32:55.693Z,2.45
2022-08-30T23:35:40.981Z,2.50
2022-08-30T23:38:25.821Z,2.90
2022-08-30T23:41:10.617Z,2.17
2022-08-30T23:43:55.679Z,2.42
2022-08-30T23:46:40.545Z,3.03
2022-08-30T23:49:25.516Z,2.88
2022-08-30T23:52:10.351Z,2.72
2022-08-30T23:54:57.314Z,2.58
2022-08-30T23:57:42.303Z,3.20
